Time;durP1;ratioP1;P1;durP2;ratioP2;P2;SDS_P1;SDS_P2;PMS_P1;PMS_P2;Temp;Humidity;BMP_temperature;BMP_pressure;BME280_temperature;BME280_humidity;BME280_pressure;Samples;Min_cycle;Max_cycle;Signal;HPM_P1;HPM_P2
2024/01/09 00:00:31;;;;;;;;;;;10.30;99.90;;;;;;5093736;28;19962;-81
2024/01/09 00:02:57;;;;;;;;;;;10.30;99.90;;;;;;5092670;28;19957;-81
2024/01/09 00:05:23;;;;;;;;;;;10.30;99.90;;;;;;5092917;28;20004;-81
2024/01/09 00:07:48;;;;;;;;;;;10.30;99.90;;;;;;5093356;28;19927;-81
2024/01/09 00:10:14;;;;;;;;;;;10.40;99.90;;;;;;5093239;28;20015;-82
2024/01/09 00:12:41;;;;;;;;;;;10.50;99.90;;;;;;5091581;28;20031;-80
2024/01/09 00:15:07;;;;;;;;;;;10.50;99.90;;;;;;5093056;28;20269;-81
2024/01/09 00:17:33;;;;;;;;;;;10.60;99.90;;;;;;5093091;28;19998;-80
2024/01/09 00:19:59;;;;;;;;;;;10.60;99.90;;;;;;5092881;28;20018;-80
2024/01/09 00:22:25;;;;;;;;;;;10.60;99.90;;;;;;5092832;28;19912;-81
2024/01/09 00:24:51;;;;;;;;;;;10.60;99.90;;;;;;5093146;28;19953;-80
2024/01/09 00:27:17;;;;;;;;;;;10.60;99.90;;;;;;5092914;28;20202;-81
2024/01/09 00:29:43;;;;;;;;;;;10.70;99.90;;;;;;5092817;28;19916;-81
2024/01/09 00:32:08;;;;;;;;;;;10.70;99.90;;;;;;5093191;28;19908;-81
2024/01/09 00:34:34;;;;;;;;;;;10.70;99.90;;;;;;5092324;28;20280;-81
2024/01/09 00:37:01;;;;;;;;;;;10.80;99.90;;;;;;5093084;28;19915;-81
2024/01/09 00:39:26;;;;;;;;;;;10.80;99.90;;;;;;5092613;28;19949;-80
2024/01/09 00:41:52;;;;;;;;;;;10.80;99.90;;;;;;5092843;28;19912;-81
2024/01/09 00:44:18;;;;;;;;;;;10.90;99.90;;;;;;5092911;28;20028;-81
2024/01/09 00:46:44;;;;;;;;;;;10.90;99.90;;;;;;5093274;28;20342;-81
2024/01/09 00:49:10;;;;;;;;;;;10.90;99.90;;;;;;5092210;28;19918;-81
2024/01/09 00:51:36;;;;;;;;;;;10.80;99.90;;;;;;5092663;28;19912;-81
2024/01/09 00:54:02;;;;;;;;;;;10.70;99.90;;;;;;5091292;28;20382;-81
2024/01/09 00:56:28;;;;;;;;;;;10.70;99.90;;;;;;5092680;28;19908;-81
2024/01/09 00:58:54;;;;;;;;;;;10.60;99.90;;;;;;5092452;28;19980;-80
2024/01/09 01:01:20;;;;;;;;;;;10.70;99.90;;;;;;5092651;28;19914;-81
2024/01/09 01:03:46;;;;;;;;;;;10.70;99.90;;;;;;5090322;28;20329;-81
2024/01/09 01:06:13;;;;;;;;;;;10.70;99.90;;;;;;5091652;28;20418;-81
2024/01/09 01:08:38;;;;;;;;;;;10.70;99.90;;;;;;5092391;28;19999;-82
2024/01/09 01:11:05;;;;;;;;;;;10.70;99.90;;;;;;5092071;28;20013;-82
2024/01/09 01:13:31;;;;;;;;;;;10.70;99.90;;;;;;5090527;28;19939;-81
2024/01/09 01:15:57;;;;;;;;;;;10.70;99.90;;;;;;5092194;28;20388;-81
2024/01/09 01:18:23;;;;;;;;;;;10.80;99.90;;;;;;5090601;28;20437;-81
2024/01/09 01:20:48;;;;;;;;;;;10.90;99.90;;;;;;5092250;28;19989;-81
2024/01/09 01:23:14;;;;;;;;;;;10.80;99.90;;;;;;5092123;28;19930;-81
2024/01/09 01:25:41;;;;;;;;;;;10.80;99.90;;;;;;5090119;28;19958;-82
2024/01/09 01:28:07;;;;;;;;;;;10.80;99.90;;;;;;5091841;28;20046;-81
2024/01/09 01:30:33;;;;;;;;;;;10.80;99.90;;;;;;5090453;28;19924;-82
2024/01/09 01:32:59;;;;;;;;;;;10.90;99.90;;;;;;5091633;28;20350;-82
2024/01/09 01:35:25;;;;;;;;;;;10.80;99.90;;;;;;5091285;28;19916;-81
2024/01/09 01:37:51;;;;;;;;;;;10.80;99.90;;;;;;5091850;28;20219;-81
2024/01/09 01:40:19;;;;;;;;;;;10.80;99.90;;;;;;5090235;28;22919;-81
2024/01/09 01:42:45;;;;;;;;;;;10.80;99.90;;;;;;5091457;28;20368;-81
2024/01/09 01:45:18;;;;;;;;;;;10.80;99.90;;;;;;5089475;28;19931;-82
2024/01/09 01:47:45;;;;;;;;;;;10.70;99.90;;;;;;5091314;28;19914;-82
2024/01/09 01:50:12;;;;;;;;;;;10.70;99.90;;;;;;5090839;28;20353;-81
2024/01/09 01:52:38;;;;;;;;;;;10.80;99.90;;;;;;5089582;28;19919;-81
2024/01/09 01:55:04;;;;;;;;;;;10.80;99.90;;;;;;5091242;28;19984;-81
2024/01/09 01:57:31;;;;;;;;;;;10.80;99.90;;;;;;5091152;28;19908;-81
2024/01/09 01:59:57;;;;;;;;;;;10.80;99.90;;;;;;5091377;28;19916;-80
2024/01/09 02:02:25;;;;;;;;;;;10.70;99.90;;;;;;5095249;28;19950;-80
2024/01/09 02:04:51;;;;;;;;;;;10.70;99.90;;;;;;5094446;28;19943;-80
2024/01/09 02:07:17;;;;;;;;;;;10.70;99.90;;;;;;5095283;28;20360;-80
2024/01/09 02:09:44;;;;;;;;;;;10.70;99.90;;;;;;5094716;28;19920;-79
2024/01/09 02:12:10;;;;;;;;;;;10.70;99.90;;;;;;5094842;28;19998;-80
2024/01/09 02:14:36;;;;;;;;;;;10.70;99.90;;;;;;5094671;28;19951;-80
2024/01/09 02:17:02;;;;;;;;;;;10.60;99.90;;;;;;5093227;28;19998;-79
2024/01/09 02:19:28;;;;;;;;;;;10.60;99.90;;;;;;5094620;28;19923;-80
2024/01/09 02:21:54;;;;;;;;;;;10.60;99.90;;;;;;5094726;28;19908;-81
2024/01/09 02:24:19;;;;;;;;;;;10.60;99.90;;;;;;5094673;28;19908;-81
2024/01/09 02:26:52;;;;;;;;;;;10.60;99.90;;;;;;5094715;28;20279;-80
2024/01/09 02:29:22;;;;;;;;;;;10.70;99.90;;;;;;5093141;28;19947;-80
2024/01/09 02:31:48;;;;;;;;;;;10.70;99.90;;;;;;5094550;28;19908;-80
2024/01/09 02:34:14;;;;;;;;;;;10.70;99.90;;;;;;5093944;28;20003;-80
2024/01/09 02:36:40;;;;;;;;;;;10.70;99.90;;;;;;5094513;28;19918;-81
2024/01/09 02:39:07;;;;;;;;;;;10.70;99.90;;;;;;5094007;28;19924;-82
2024/01/09 02:41:37;;;;;;;;;;;10.70;99.90;;;;;;5094657;28;19931;-81
2024/01/09 02:44:04;;;;;;;;;;;10.70;99.90;;;;;;5094089;28;20320;-81
2024/01/09 02:46:29;;;;;;;;;;;10.70;99.90;;;;;;5092559;28;19912;-81
2024/01/09 02:48:55;;;;;;;;;;;10.60;99.90;;;;;;5093999;28;19912;-80
2024/01/09 02:51:21;;;;;;;;;;;10.60;99.90;;;;;;5094092;28;19908;-81
2024/01/09 02:53:48;;;;;;;;;;;10.60;99.90;;;;;;5094457;28;19908;-81
2024/01/09 02:56:14;;;;;;;;;;;10.60;99.90;;;;;;5094099;28;19997;-80
2024/01/09 02:58:40;;;;;;;;;;;10.60;99.90;;;;;;5092413;28;19912;-80
2024/01/09 03:01:07;;;;;;;;;;;10.60;99.90;;;;;;5094143;28;19919;-80
2024/01/09 03:03:33;;;;;;;;;;;10.60;99.90;;;;;;5094518;28;20003;-81
2024/01/09 03:05:59;;;;;;;;;;;10.60;99.90;;;;;;5093999;28;19947;-80
2024/01/09 03:08:25;;;;;;;;;;;10.50;99.90;;;;;;5093843;28;20336;-80
2024/01/09 03:10:50;;;;;;;;;;;10.50;99.90;;;;;;5094056;28;19927;-81
2024/01/09 03:13:16;;;;;;;;;;;10.50;99.90;;;;;;5092666;28;20257;-80
2024/01/09 03:15:42;;;;;;;;;;;10.60;99.90;;;;;;5092343;28;19951;-80
2024/01/09 03:18:08;;;;;;;;;;;10.60;99.90;;;;;;5093670;28;19938;-81
2024/01/09 03:20:34;;;;;;;;;;;10.70;99.90;;;;;;5093453;28;19916;-81
2024/01/09 03:22:59;;;;;;;;;;;10.70;99.90;;;;;;5093539;28;19915;-81
2024/01/09 03:25:26;;;;;;;;;;;10.70;99.90;;;;;;5093347;28;19919;-81
2024/01/09 03:27:55;;;;;;;;;;;10.80;99.90;;;;;;5093231;28;19967;-81
2024/01/09 03:30:21;;;;;;;;;;;10.80;99.90;;;;;;5091761;28;19984;-80
2024/01/09 03:32:47;;;;;;;;;;;10.80;99.90;;;;;;5093063;28;19930;-81
2024/01/09 03:35:12;;;;;;;;;;;10.80;99.90;;;;;;5091343;28;20360;-81
2024/01/09 03:37:38;;;;;;;;;;;10.80;99.90;;;;;;5092819;28;19915;-81
2024/01/09 03:40:04;;;;;;;;;;;10.80;99.90;;;;;;5091875;28;19920;-82
2024/01/09 03:42:31;;;;;;;;;;;10.70;99.90;;;;;;5092124;28;19987;-81
2024/01/09 03:44:56;;;;;;;;;;;10.70;99.90;;;;;;5092305;28;19915;-81
2024/01/09 03:47:23;;;;;;;;;;;10.70;99.90;;;;;;5091840;28;20217;-80
2024/01/09 03:49:49;;;;;;;;;;;10.70;99.90;;;;;;5090382;28;19958;-81
2024/01/09 03:52:15;;;;;;;;;;;10.70;99.90;;;;;;5092174;28;20409;-79
2024/01/09 03:54:41;;;;;;;;;;;10.70;99.90;;;;;;5092366;28;19950;-81
2024/01/09 03:57:07;;;;;;;;;;;10.70;99.90;;;;;;5091284;28;20284;-81
2024/01/09 03:59:33;;;;;;;;;;;10.70;99.90;;;;;;5092925;28;20018;-81
2024/01/09 04:01:59;;;;;;;;;;;10.70;99.90;;;;;;5092810;28;20021;-81
2024/01/09 04:04:25;;;;;;;;;;;10.70;99.90;;;;;;5091410;28;20435;-80
2024/01/09 04:06:51;;;;;;;;;;;10.60;99.90;;;;;;5093172;28;19927;-81
2024/01/09 04:09:16;;;;;;;;;;;10.60;99.90;;;;;;5093022;28;19915;-80
2024/01/09 04:11:45;;;;;;;;;;;10.60;99.90;;;;;;5093618;28;20275;-81
2024/01/09 04:14:11;;;;;;;;;;;10.60;99.90;;;;;;5092092;28;19981;-81
2024/01/09 04:16:37;;;;;;;;;;;10.50;99.90;;;;;;5093489;28;19908;-81
2024/01/09 04:19:03;;;;;;;;;;;10.50;99.90;;;;;;5092922;28;19947;-80
2024/01/09 04:21:29;;;;;;;;;;;10.50;99.90;;;;;;5093150;28;19908;-82
2024/01/09 04:23:55;;;;;;;;;;;10.50;99.90;;;;;;5092780;28;19911;-81
2024/01/09 04:26:20;;;;;;;;;;;10.40;99.90;;;;;;5093914;28;19951;-81
2024/01/09 04:28:46;;;;;;;;;;;10.40;99.90;;;;;;5093542;28;19914;-81
2024/01/09 04:31:12;;;;;;;;;;;10.50;99.90;;;;;;5093220;28;19908;-80
2024/01/09 04:33:41;;;;;;;;;;;10.40;99.90;;;;;;5093098;28;19912;-81
2024/01/09 04:36:07;;;;;;;;;;;10.40;99.90;;;;;;5093049;28;20345;-80
2024/01/09 04:38:32;;;;;;;;;;;10.50;99.90;;;;;;5091369;28;19995;-81
2024/01/09 04:40:59;;;;;;;;;;;10.40;99.90;;;;;;5092048;28;19912;-81
2024/01/09 04:43:25;;;;;;;;;;;10.20;99.90;;;;;;5093658;28;20317;-80
2024/01/09 04:45:51;;;;;;;;;;;10.20;99.90;;;;;;5092931;28;20027;-81
2024/01/09 04:48:17;;;;;;;;;;;10.20;99.90;;;;;;5091545;28;19908;-81
2024/01/09 04:50:43;;;;;;;;;;;10.20;99.90;;;;;;5092916;28;20270;-81
2024/01/09 04:53:09;;;;;;;;;;;10.20;99.90;;;;;;5093907;28;19908;-80
2024/01/09 04:55:35;;;;;;;;;;;10.20;99.90;;;;;;5093069;28;20061;-81
2024/01/09 04:58:01;;;;;;;;;;;10.10;99.90;;;;;;5092710;28;20360;-81
2024/01/09 05:00:26;;;;;;;;;;;10.10;99.90;;;;;;5093628;28;20351;-80
2024/01/09 05:02:53;;;;;;;;;;;10.10;99.90;;;;;;5094142;28;19998;-80
2024/01/09 05:05:18;;;;;;;;;;;10.10;99.90;;;;;;5093280;28;20249;-81
2024/01/09 05:07:46;;;;;;;;;;;10.10;99.90;;;;;;5093679;28;19918;-81
2024/01/09 05:10:11;;;;;;;;;;;10.10;99.90;;;;;;5094045;28;19930;-81
2024/01/09 05:12:38;;;;;;;;;;;10.10;99.90;;;;;;5092270;28;19908;-81
2024/01/09 05:15:04;;;;;;;;;;;10.10;99.90;;;;;;5093530;28;19930;-81
2024/01/09 05:17:31;;;;;;;;;;;10.20;99.90;;;;;;5093633;28;19927;-81
2024/01/09 05:19:56;;;;;;;;;;;10.30;99.90;;;;;;5094975;28;19916;-81
2024/01/09 05:22:22;;;;;;;;;;;10.30;99.90;;;;;;5092675;28;19909;-81
2024/01/09 05:24:48;;;;;;;;;;;10.30;99.90;;;;;;5093938;28;20272;-81
2024/01/09 05:27:19;;;;;;;;;;;10.30;99.90;;;;;;5094339;28;19953;-81
2024/01/09 05:29:45;;;;;;;;;;;10.40;99.90;;;;;;5093799;28;19963;-80
2024/01/09 05:32:11;;;;;;;;;;;10.40;99.90;;;;;;5093933;28;19959;-81
2024/01/09 05:34:37;;;;;;;;;;;10.50;99.90;;;;;;5093221;28;19908;-81
2024/01/09 05:37:03;;;;;;;;;;;10.50;99.90;;;;;;5094377;28;19943;-81
2024/01/09 05:39:29;;;;;;;;;;;10.50;99.90;;;;;;5093930;28;19970;-81
2024/01/09 05:41:55;;;;;;;;;;;10.50;99.90;;;;;;5093787;28;19988;-81
2024/01/09 05:44:21;;;;;;;;;;;10.50;99.90;;;;;;5094119;28;19923;-79
2024/01/09 05:46:49;;;;;;;;;;;10.40;99.90;;;;;;5093890;28;19912;-81
2024/01/09 05:49:15;;;;;;;;;;;10.40;99.90;;;;;;5093766;28;19908;-79
2024/01/09 05:51:41;;;;;;;;;;;10.40;99.90;;;;;;5092323;28;20328;-81
2024/01/09 05:54:06;;;;;;;;;;;10.40;99.90;;;;;;5093718;28;20026;-81
2024/01/09 05:56:32;;;;;;;;;;;10.40;99.90;;;;;;5094207;28;19909;-81
2024/01/09 05:58:58;;;;;;;;;;;10.40;99.90;;;;;;5093785;28;20276;-81
2024/01/09 06:01:24;;;;;;;;;;;10.50;99.90;;;;;;5093325;28;19961;-80
2024/01/09 06:03:51;;;;;;;;;;;10.40;99.90;;;;;;5092881;28;20279;-80
2024/01/09 06:06:17;;;;;;;;;;;10.30;99.90;;;;;;5093153;28;19969;-80
2024/01/09 06:08:43;;;;;;;;;;;10.30;99.90;;;;;;5093425;28;20333;-81
2024/01/09 06:11:09;;;;;;;;;;;10.30;99.90;;;;;;5091596;28;19912;-80
2024/01/09 06:13:35;;;;;;;;;;;10.30;99.90;;;;;;5092892;28;19915;-80
2024/01/09 06:16:00;;;;;;;;;;;10.30;99.90;;;;;;5092915;28;20414;-81
2024/01/09 06:18:26;;;;;;;;;;;10.30;99.90;;;;;;5091631;28;19962;-78
2024/01/09 06:20:52;;;;;;;;;;;10.40;99.90;;;;;;5093085;28;19961;-80
2024/01/09 06:23:18;;;;;;;;;;;10.40;99.90;;;;;;5091684;28;19908;-80
2024/01/09 06:25:44;;;;;;;;;;;10.30;99.90;;;;;;5093559;28;19960;-81
2024/01/09 06:28:10;;;;;;;;;;;10.40;99.90;;;;;;5092850;28;19908;-80
2024/01/09 06:30:36;;;;;;;;;;;10.40;99.90;;;;;;5092943;28;19966;-80
2024/01/09 06:33:02;;;;;;;;;;;10.40;99.90;;;;;;5092817;28;19908;-80
2024/01/09 06:35:28;;;;;;;;;;;10.40;99.90;;;;;;5092396;28;19915;-82
2024/01/09 06:37:54;;;;;;;;;;;10.40;99.90;;;;;;5091476;28;19909;-81
2024/01/09 06:40:20;;;;;;;;;;;10.60;99.90;;;;;;5092476;28;20020;-81
2024/01/09 06:42:46;;;;;;;;;;;10.70;99.90;;;;;;5091162;28;19912;-81
2024/01/09 06:45:14;;;;;;;;;;;10.80;99.90;;;;;;5090891;28;20348;-80
2024/01/09 06:47:41;;;;;;;;;;;10.90;99.90;;;;;;5093224;28;19908;-82
2024/01/09 06:50:07;;;;;;;;;;;11.00;99.90;;;;;;5094188;28;19954;-81
2024/01/09 06:52:33;;;;;;;;;;;11.00;99.90;;;;;;5095831;28;19908;-81
2024/01/09 06:54:59;;;;;;;;;;;11.10;99.90;;;;;;5095482;28;20313;-81
2024/01/09 06:57:25;;;;;;;;;;;11.10;99.90;;;;;;5094760;28;20247;-81
2024/01/09 06:59:51;;;;;;;;;;;11.20;99.90;;;;;;5093014;28;19912;-82
2024/01/09 07:02:17;;;;;;;;;;;11.20;99.90;;;;;;5093915;28;19962;-82
2024/01/09 07:04:43;;;;;;;;;;;11.40;99.90;;;;;;5093658;28;20035;-82
2024/01/09 07:07:09;;;;;;;;;;;11.40;99.90;;;;;;5093967;28;19908;-83
2024/01/09 07:09:36;;;;;;;;;;;11.50;99.90;;;;;;5100423;28;19954;-84
2024/01/09 07:12:02;;;;;;;;;;;11.60;99.90;;;;;;5097452;28;20331;-81
2024/01/09 07:14:28;;;;;;;;;;;11.80;99.90;;;;;;5094839;28;20383;-81
2024/01/09 07:16:57;;;;;;;;;;;11.80;99.90;;;;;;5094832;28;19962;-82
2024/01/09 07:19:23;;;;;;;;;;;12.00;99.90;;;;;;5094891;28;20019;-82
2024/01/09 07:21:49;;;;;;;;;;;12.70;99.90;;;;;;5093410;28;19951;-83
2024/01/09 07:24:15;;;;;;;;;;;13.40;99.90;;;;;;5094272;28;19951;-81
2024/01/09 07:26:42;;;;;;;;;;;14.10;99.90;;;;;;5094048;28;20344;-83
2024/01/09 07:29:08;;;;;;;;;;;14.80;99.90;;;;;;5092434;28;20011;-81
2024/01/09 07:31:34;;;;;;;;;;;15.00;99.90;;;;;;5094953;28;19995;-81
2024/01/09 07:34:01;;;;;;;;;;;15.30;99.90;;;;;;5094509;28;20385;-81
2024/01/09 07:36:27;;;;;;;;;;;15.80;99.90;;;;;;5092809;28;19909;-81
2024/01/09 07:38:53;;;;;;;;;;;16.20;99.90;;;;;;5094595;28;20382;-81
2024/01/09 07:41:19;;;;;;;;;;;16.70;99.90;;;;;;5094982;28;20052;-81
2024/01/09 07:43:45;;;;;;;;;;;16.90;99.90;;;;;;5092840;28;19915;-81
2024/01/09 07:46:11;;;;;;;;;;;17.20;99.90;;;;;;5094202;28;19988;-82
2024/01/09 07:48:38;;;;;;;;;;;17.80;99.90;;;;;;5095116;28;20006;-82
2024/01/09 07:51:04;;;;;;;;;;;18.50;99.90;;;;;;5094152;28;19908;-82
2024/01/09 07:53:30;;;;;;;;;;;19.10;99.90;;;;;;5093925;28;20271;-82
2024/01/09 07:55:56;;;;;;;;;;;19.00;99.90;;;;;;5092479;28;19912;-81
2024/01/09 07:58:22;;;;;;;;;;;19.10;99.90;;;;;;5093343;28;19908;-82
2024/01/09 08:00:48;;;;;;;;;;;19.10;99.90;;;;;;5095613;28;19917;-82
2024/01/09 08:03:14;;;;;;;;;;;19.00;99.90;;;;;;5096058;28;19998;-83
2024/01/09 08:05:39;;;;;;;;;;;18.60;99.90;;;;;;5093108;28;20356;-82
2024/01/09 08:08:06;;;;;;;;;;;18.10;99.90;;;;;;5092848;28;19908;-82
2024/01/09 08:10:31;;;;;;;;;;;17.40;99.90;;;;;;5092946;28;19916;-80
2024/01/09 08:12:58;;;;;;;;;;;16.70;99.90;;;;;;5094236;28;19908;-83
2024/01/09 08:15:24;;;;;;;;;;;16.10;99.90;;;;;;5092406;28;19994;-81
2024/01/09 08:17:50;;;;;;;;;;;15.80;99.90;;;;;;5090448;28;20006;-82
2024/01/09 08:20:16;;;;;;;;;;;15.40;99.90;;;;;;5091693;28;19931;-82
2024/01/09 08:22:42;;;;;;;;;;;15.10;99.90;;;;;;5091894;28;20280;-83
2024/01/09 08:25:09;;;;;;;;;;;14.80;99.90;;;;;;5091721;28;20543;-82
2024/01/09 08:27:34;;;;;;;;;;;14.70;99.90;;;;;;5091986;28;19919;-83
2024/01/09 08:30:01;;;;;;;;;;;14.60;99.90;;;;;;5091581;28;19928;-83
2024/01/09 08:32:26;;;;;;;;;;;14.70;99.90;;;;;;5093895;28;20057;-82
2024/01/09 08:34:53;;;;;;;;;;;14.80;99.90;;;;;;5091709;28;19963;-84
2024/01/09 08:37:19;;;;;;;;;;;14.90;99.90;;;;;;5093550;28;20249;-83
2024/01/09 08:39:45;;;;;;;;;;;15.00;99.90;;;;;;5093286;28;19920;-83
2024/01/09 08:42:12;;;;;;;;;;;14.90;99.90;;;;;;5094083;28;19914;-82
2024/01/09 08:44:38;;;;;;;;;;;14.90;99.90;;;;;;5093256;28;19909;-81
2024/01/09 08:47:06;;;;;;;;;;;15.10;99.90;;;;;;5091549;28;19908;-80
2024/01/09 08:49:32;;;;;;;;;;;15.50;99.90;;;;;;5092632;28;20279;-81
2024/01/09 08:51:58;;;;;;;;;;;16.00;99.90;;;;;;5091635;28;19981;-82
2024/01/09 08:54:24;;;;;;;;;;;16.40;99.90;;;;;;5091087;28;20363;-81
2024/01/09 08:56:50;;;;;;;;;;;16.40;99.90;;;;;;5092849;28;19919;-83
2024/01/09 08:59:16;;;;;;;;;;;16.70;99.90;;;;;;5092618;28;20029;-81
2024/01/09 09:01:43;;;;;;;;;;;16.80;99.90;;;;;;5092906;28;20230;-82
2024/01/09 09:04:09;;;;;;;;;;;16.70;99.90;;;;;;5093514;28;20074;-82
2024/01/09 09:06:35;;;;;;;;;;;16.60;99.90;;;;;;5093362;28;20042;-82
2024/01/09 09:09:01;;;;;;;;;;;16.20;99.90;;;;;;5093191;28;19908;-78
2024/01/09 09:11:26;;;;;;;;;;;16.20;99.90;;;;;;5093579;28;19965;-82
2024/01/09 09:13:52;;;;;;;;;;;16.10;99.90;;;;;;5093378;28;19908;-82
2024/01/09 09:16:22;;;;;;;;;;;15.90;99.90;;;;;;5092267;28;20007;-83
2024/01/09 09:18:47;;;;;;;;;;;16.10;99.90;;;;;;5092158;28;20401;-82
2024/01/09 09:21:13;;;;;;;;;;;16.30;99.90;;;;;;5091789;28;19908;-81
2024/01/09 09:23:39;;;;;;;;;;;16.40;99.90;;;;;;5092735;28;19908;-82
2024/01/09 09:26:05;;;;;;;;;;;16.50;99.90;;;;;;5094094;28;19908;-85
2024/01/09 09:28:31;;;;;;;;;;;16.40;99.90;;;;;;5093404;28;20034;-83
2024/01/09 09:30:57;;;;;;;;;;;16.40;99.90;;;;;;5092147;28;19912;-83
2024/01/09 09:33:23;;;;;;;;;;;16.50;99.90;;;;;;5093282;28;19972;-83
2024/01/09 09:35:48;;;;;;;;;;;16.70;99.90;;;;;;5093437;28;20007;-82
2024/01/09 09:38:15;;;;;;;;;;;16.80;99.90;;;;;;5092159;28;20372;-83
2024/01/09 09:40:41;;;;;;;;;;;16.80;99.90;;;;;;5093142;28;20011;-82
2024/01/09 09:43:15;;;;;;;;;;;16.90;99.90;;;;;;5093215;28;19939;-83
2024/01/09 09:45:43;;;;;;;;;;;17.10;99.90;;;;;;5090995;28;19981;-83
2024/01/09 09:48:10;;;;;;;;;;;16.90;99.90;;;;;;5091152;28;19908;-83
2024/01/09 09:50:35;;;;;;;;;;;16.70;99.90;;;;;;5091064;28;19919;-83
2024/01/09 09:53:01;;;;;;;;;;;16.70;99.90;;;;;;5092230;28;19908;-82
2024/01/09 09:55:27;;;;;;;;;;;16.80;99.90;;;;;;5092612;28;19927;-83
2024/01/09 09:57:54;;;;;;;;;;;17.10;99.90;;;;;;5094600;28;20375;-82
2024/01/09 10:00:20;;;;;;;;;;;17.10;99.90;;;;;;5092246;28;19916;-83
2024/01/09 10:02:49;;;;;;;;;;;17.20;99.90;;;;;;5091979;28;19915;-83
2024/01/09 10:05:17;;;;;;;;;;;17.30;99.90;;;;;;5091854;28;19974;-84
2024/01/09 10:07:47;;;;;;;;;;;17.10;99.90;;;;;;5092544;28;20114;-83
2024/01/09 10:10:14;;;;;;;;;;;17.00;99.90;;;;;;5091534;28;19953;-82
2024/01/09 10:12:40;;;;;;;;;;;16.90;99.90;;;;;;5092231;28;19942;-83
2024/01/09 10:15:17;;;;;;;;;;;17.20;99.90;;;;;;5092363;28;19915;-83
2024/01/09 10:17:44;;;;;;;;;;;17.30;99.90;;;;;;5092408;28;19961;-82
2024/01/09 10:20:10;;;;;;;;;;;17.30;99.90;;;;;;5090683;28;20062;-82
2024/01/09 10:22:38;;;;;;;;;;;17.00;99.90;;;;;;5095329;28;20336;-83
2024/01/09 10:25:05;;;;;;;;;;;17.00;99.90;;;;;;5096327;28;19908;-84
2024/01/09 10:27:32;;;;;;;;;;;16.70;99.90;;;;;;5096281;28;19942;-83
2024/01/09 10:29:59;;;;;;;;;;;16.80;99.90;;;;;;5094816;28;20310;-84
2024/01/09 10:32:24;;;;;;;;;;;16.80;99.90;;;;;;5096498;28;19987;-82
2024/01/09 10:34:51;;;;;;;;;;;17.00;99.90;;;;;;5096202;28;19908;-82
2024/01/09 10:37:18;;;;;;;;;;;17.10;99.90;;;;;;5095923;28;19912;-82
2024/01/09 10:39:47;;;;;;;;;;;17.00;99.90;;;;;;5095471;28;19927;-84
2024/01/09 10:42:12;;;;;;;;;;;17.20;99.90;;;;;;5094251;28;19909;-84
2024/01/09 10:44:39;;;;;;;;;;;17.30;99.90;;;;;;5096004;28;20026;-82
2024/01/09 10:47:17;;;;;;;;;;;17.20;99.90;;;;;;5094057;28;19915;-84
2024/01/09 10:49:45;;;;;;;;;;;17.00;99.90;;;;;;5093853;28;19997;-82
2024/01/09 10:52:15;;;;;;;;;;;16.70;99.90;;;;;;5095417;28;20015;-82
2024/01/09 10:54:44;;;;;;;;;;;16.70;99.90;;;;;;5076861;28;19987;-83
2024/01/09 10:57:13;;;;;;;;;;;16.70;99.90;;;;;;5093933;28;19977;-83
2024/01/09 10:59:40;;;;;;;;;;;17.00;99.90;;;;;;5093647;28;20340;-83
2024/01/09 11:02:25;;;;;;;;;;;17.20;99.90;;;;;;5095031;28;19916;-83
2024/01/09 11:04:51;;;;;;;;;;;17.50;99.90;;;;;;5094965;28;19916;-84
2024/01/09 11:07:17;;;;;;;;;;;17.70;99.90;;;;;;5093694;28;19912;-83
2024/01/09 11:09:44;;;;;;;;;;;17.90;99.90;;;;;;5098897;28;19961;-85
2024/01/09 11:12:13;;;;;;;;;;;17.80;99.90;;;;;;5096027;28;19912;-84
2024/01/09 11:14:40;;;;;;;;;;;17.60;99.90;;;;;;5094906;28;19920;-83
2024/01/09 11:17:06;;;;;;;;;;;17.30;99.90;;;;;;5095773;28;20006;-84
2024/01/09 11:19:32;;;;;;;;;;;17.20;99.90;;;;;;5094012;28;19916;-83
2024/01/09 11:22:11;;;;;;;;;;;17.10;99.90;;;;;;5096510;28;19915;-83
2024/01/09 11:24:37;;;;;;;;;;;17.30;99.90;;;;;;5097025;28;19912;-81
2024/01/09 11:27:10;;;;;;;;;;;17.60;99.90;;;;;;5094439;28;20410;-83
2024/01/09 11:29:53;;;;;;;;;;;17.50;99.90;;;;;;5095422;28;20276;-83
2024/01/09 11:32:25;;;;;;;;;;;17.30;99.90;;;;;;5091151;28;20251;-84
2024/01/09 11:35:10;;;;;;;;;;;17.10;99.90;;;;;;5094430;28;19966;-84
2024/01/09 11:37:36;;;;;;;;;;;17.20;99.90;;;;;;5093543;28;19908;-83
2024/01/09 11:40:02;;;;;;;;;;;17.00;99.90;;;;;;5094700;28;20030;-83
2024/01/09 11:42:28;;;;;;;;;;;17.20;99.90;;;;;;5095117;28;19917;-83
2024/01/09 11:44:54;;;;;;;;;;;17.20;99.90;;;;;;5093923;28;20359;-83
2024/01/09 11:47:20;;;;;;;;;;;16.90;99.90;;;;;;5093772;28;19943;-82
2024/01/09 11:49:46;;;;;;;;;;;17.10;99.90;;;;;;5094433;28;20336;-83
2024/01/09 11:52:12;;;;;;;;;;;17.10;99.90;;;;;;5094096;28;20313;-83
2024/01/09 11:54:37;;;;;;;;;;;17.20;99.90;;;;;;5095276;28;19908;-82
2024/01/09 11:57:04;;;;;;;;;;;17.40;99.90;;;;;;5094990;28;19958;-83
2024/01/09 11:59:31;;;;;;;;;;;17.60;99.90;;;;;;5096138;28;19920;-82
2024/01/09 12:01:56;;;;;;;;;;;17.70;99.90;;;;;;5094903;28;19987;-82
2024/01/09 12:04:22;;;;;;;;;;;18.00;99.90;;;;;;5094050;28;20035;-83
2024/01/09 12:06:48;;;;;;;;;;;18.20;99.90;;;;;;5093691;28;19909;-82
2024/01/09 12:09:14;;;;;;;;;;;18.20;99.90;;;;;;5093397;28;19908;-83
2024/01/09 12:11:40;;;;;;;;;;;18.10;99.90;;;;;;5092155;28;19915;-83
2024/01/09 12:14:07;;;;;;;;;;;17.80;99.90;;;;;;5093415;28;19908;-83
2024/01/09 12:16:33;;;;;;;;;;;17.90;99.90;;;;;;5093349;28;19912;-83
2024/01/09 12:18:59;;;;;;;;;;;17.90;99.90;;;;;;5094153;28;20321;-84
2024/01/09 12:21:27;;;;;;;;;;;17.80;99.90;;;;;;5092457;28;20275;-84
2024/01/09 12:23:55;;;;;;;;;;;17.90;99.90;;;;;;5093143;28;19908;-82
2024/01/09 12:26:21;;;;;;;;;;;18.10;99.90;;;;;;5093109;28;20400;-82
2024/01/09 12:28:48;;;;;;;;;;;18.20;99.90;;;;;;5093749;28;19912;-84
2024/01/09 12:31:22;;;;;;;;;;;18.10;99.90;;;;;;5094380;28;20356;-83
2024/01/09 12:33:48;;;;;;;;;;;18.30;99.90;;;;;;5094162;28;19908;-84
2024/01/09 12:36:14;;;;;;;;;;;18.50;99.90;;;;;;5094076;28;19908;-84
2024/01/09 12:38:40;;;;;;;;;;;18.50;99.90;;;;;;5094440;28;19963;-84
2024/01/09 12:41:06;;;;;;;;;;;18.50;99.90;;;;;;5093481;28;20003;-83
2024/01/09 12:43:33;;;;;;;;;;;18.50;99.90;;;;;;5093422;28;19908;-83
2024/01/09 12:45:59;;;;;;;;;;;18.20;99.90;;;;;;5093580;28;20002;-83
2024/01/09 12:48:26;;;;;;;;;;;18.20;99.90;;;;;;5094279;28;19951;-80
2024/01/09 12:51:01;;;;;;;;;;;18.00;99.90;;;;;;5091813;28;19939;-83
2024/01/09 12:53:29;;;;;;;;;;;18.00;99.90;;;;;;5093571;28;20253;-81
2024/01/09 12:56:08;;;;;;;;;;;18.20;99.90;;;;;;5094326;28;19919;-81
2024/01/09 12:58:36;;;;;;;;;;;18.30;99.90;;;;;;5093557;28;20382;-83
2024/01/09 13:01:05;;;;;;;;;;;18.50;99.90;;;;;;5093296;28;20392;-83
2024/01/09 13:03:32;;;;;;;;;;;18.70;99.90;;;;;;5091928;28;20031;-82
2024/01/09 13:06:00;;;;;;;;;;;18.80;99.90;;;;;;5094622;28;20337;-81
2024/01/09 13:08:25;;;;;;;;;;;18.70;99.90;;;;;;5093877;28;20018;-78
2024/01/09 13:10:52;;;;;;;;;;;18.80;99.90;;;;;;5092278;28;20003;-82
2024/01/09 13:13:18;;;;;;;;;;;18.60;99.90;;;;;;5093971;28;19914;-83
2024/01/09 13:15:44;;;;;;;;;;;18.50;99.90;;;;;;5093571;28;19908;-83
2024/01/09 13:18:10;;;;;;;;;;;18.30;99.90;;;;;;5093722;28;20412;-83
2024/01/09 13:20:36;;;;;;;;;;;17.90;99.90;;;;;;5093736;28;20037;-83
2024/01/09 13:23:02;;;;;;;;;;;17.70;99.90;;;;;;5092567;28;19951;-83
2024/01/09 13:25:27;;;;;;;;;;;17.60;99.90;;;;;;5093791;28;19908;-83
2024/01/09 13:27:54;;;;;;;;;;;17.50;99.90;;;;;;5092168;28;19912;-83
2024/01/09 13:30:20;;;;;;;;;;;17.60;99.90;;;;;;5093581;28;19909;-79
2024/01/09 13:32:45;;;;;;;;;;;17.90;99.90;;;;;;5093455;28;19915;-82
2024/01/09 13:35:11;;;;;;;;;;;17.90;99.90;;;;;;5092116;28;19912;-83
2024/01/09 13:37:40;;;;;;;;;;;17.70;99.90;;;;;;5093472;28;19918;-83
2024/01/09 13:40:08;;;;;;;;;;;17.90;99.90;;;;;;5092045;28;20057;-83
2024/01/09 13:42:35;;;;;;;;;;;18.10;99.90;;;;;;5093525;28;19953;-84
2024/01/09 13:45:08;;;;;;;;;;;18.10;99.90;;;;;;5093425;28;19960;-84
2024/01/09 13:47:35;;;;;;;;;;;18.20;99.90;;;;;;5091815;28;20286;-84
2024/01/09 13:50:01;;;;;;;;;;;18.20;99.90;;;;;;5091316;28;19908;-83
2024/01/09 13:52:27;;;;;;;;;;;18.40;99.90;;;;;;5091451;28;19912;-83
2024/01/09 13:54:53;;;;;;;;;;;18.50;99.90;;;;;;5091439;28;19943;-83
2024/01/09 13:57:19;;;;;;;;;;;18.70;99.90;;;;;;5095239;28;20368;-84
2024/01/09 13:59:46;;;;;;;;;;;18.50;99.90;;;;;;5097168;28;19916;-83
2024/01/09 14:02:12;;;;;;;;;;;18.40;99.90;;;;;;5096947;28;20429;-84
2024/01/09 14:04:37;;;;;;;;;;;18.50;99.90;;;;;;5095115;28;19919;-83
2024/01/09 14:07:08;;;;;;;;;;;18.40;99.90;;;;;;5097015;28;19908;-84
2024/01/09 14:09:36;;;;;;;;;;;18.20;99.90;;;;;;5095253;28;19908;-84
2024/01/09 14:12:02;;;;;;;;;;;18.20;99.90;;;;;;5094975;28;20304;-83